createdAt,value
2022-09-09T00:01:53.717Z,100260.31
2022-09-09T00:04:29.279Z,100258.56
2022-09-09T00:07:07.487Z,100262.38
2022-09-09T00:09:47.237Z,100260.63
2022-09-09T00:12:18.978Z,100261.59
2022-09-09T00:14:53.460Z,100261.53
2022-09-09T00:17:34.734Z,100264.50
2022-09-09T00:20:11.594Z,100258.94
2022-09-09T00:22:41.963Z,100256.72
2022-09-09T00:25:13.912Z,100256.72
2022-09-09T00:27:46.678Z,100245.94
2022-09-09T00:30:23.218Z,100256.03
2022-09-09T00:32:55.091Z,100258.19
2022-09-09T00:35:26.140Z,100255.22
2022-09-09T00:37:56.968Z,100250.91
2022-09-09T00:40:31.417Z,100254.81
2022-09-09T00:43:21.921Z,100251.59
2022-09-09T00:46:19.149Z,100255.75
2022-09-09T00:48:56.670Z,100248.88
2022-09-09T00:51:37.831Z,100253.72
2022-09-09T00:54:23.607Z,100252.31
2022-09-09T00:57:02.099Z,100250.44
2022-09-09T00:59:38.128Z,100248.19
2022-09-09T01:02:15.826Z,100249.25
2022-09-09T01:04:45.216Z,100254.81
2022-09-09T01:07:18.318Z,100255.31
2022-09-09T01:09:54.569Z,100262.34
2022-09-09T01:12:30.341Z,100257.84
2022-09-09T01:15:05.417Z,100259.50
2022-09-09T01:17:42.064Z,100255.88
2022-09-09T01:20:17.987Z,100257.84
2022-09-09T01:22:59.412Z,100249.19
2022-09-09T01:25:33.533Z,100238.81
2022-09-09T01:28:07.073Z,100248.59
2022-09-09T01:30:36.026Z,100243.47
2022-09-09T01:33:04.271Z,100237.75
2022-09-09T01:35:41.578Z,100232.53
2022-09-09T01:38:10.042Z,100235.03
2022-09-09T01:40:37.895Z,100238.25
2022-09-09T01:43:07.564Z,100244.03
2022-09-09T01:45:35.745Z,100241.81
2022-09-09T01:48:04.916Z,100241.22
2022-09-09T01:50:32.805Z,100230.69
2022-09-09T01:53:03.564Z,100240.78
2022-09-09T01:55:34.211Z,100248.38
2022-09-09T01:58:19.366Z,100245.91
2022-09-09T02:00:58.713Z,100241.75
2022-09-09T02:03:30.046Z,100235.59
2022-09-09T02:06:07.434Z,100242.94
2022-09-09T02:08:41.941Z,100253.28
2022-09-09T02:11:15.212Z,100237.63
2022-09-09T02:13:45.903Z,100237.78
2022-09-09T02:16:20.010Z,100247.38
2022-09-09T02:18:52.201Z,100242.41
2022-09-09T02:21:20.368Z,100241.09
2022-09-09T02:23:52.906Z,100240.41
2022-09-09T02:26:24.249Z,100238.59
2022-09-09T02:28:56.976Z,100241.00
2022-09-09T02:31:26.916Z,100236.09
2022-09-09T02:34:00.197Z,100236.22
2022-09-09T02:36:32.018Z,100239.81
2022-09-09T02:38:59.723Z,100231.16
2022-09-09T02:41:33.419Z,100233.88
2022-09-09T02:44:03.341Z,100231.75
2022-09-09T02:47:00.333Z,100221.75
2022-09-09T02:49:42.066Z,100232.06
2022-09-09T02:52:12.560Z,100231.81
2022-09-09T02:54:41.029Z,100228.50
2022-09-09T02:57:13.487Z,100233.13
2022-09-09T02:59:42.717Z,100227.44
2022-09-09T03:02:11.139Z,100239.44
2022-09-09T03:04:39.934Z,100241.91
2022-09-09T03:07:07.662Z,100234.53
2022-09-09T03:09:35.399Z,100240.84
2022-09-09T03:12:05.208Z,100248.53
2022-09-09T03:14:32.890Z,100249.72
2022-09-09T03:17:03.279Z,100251.38
2022-09-09T03:19:31.008Z,100243.56
2022-09-09T03:21:59.063Z,100248.78
2022-09-09T03:24:26.873Z,100236.22
2022-09-09T03:26:56.710Z,100238.78
2022-09-09T03:29:24.462Z,100239.03
2022-09-09T03:31:52.271Z,100242.94
2022-09-09T03:34:21.437Z,100248.38
2022-09-09T03:36:50.149Z,100238.63
2022-09-09T03:39:17.873Z,100251.22
2022-09-09T03:41:48.782Z,100242.78
2022-09-09T03:44:16.666Z,100247.75
2022-09-09T03:46:44.285Z,100243.13
2022-09-09T03:49:12.113Z,100237.66
2022-09-09T03:51:41.328Z,100243.38
2022-09-09T03:54:11.070Z,100238.72
2022-09-09T03:56:38.960Z,100238.16
2022-09-09T03:59:06.632Z,100231.84
2022-09-09T04:01:34.814Z,100236.00
2022-09-09T04:04:03.316Z,100240.41
2022-09-09T04:06:31.355Z,100248.59
2022-09-09T04:09:00.511Z,100241.56
2022-09-09T04:11:28.133Z,100245.09
2022-09-09T04:13:55.692Z,100246.44
2022-09-09T04:16:23.314Z,100235.53
2022-09-09T04:18:51.075Z,100235.03
2022-09-09T04:21:18.680Z,100234.19
2022-09-09T04:23:46.240Z,100238.00
2022-09-09T04:26:15.159Z,100237.75
2022-09-09T04:28:42.709Z,100234.19
2022-09-09T04:31:16.344Z,100241.56
2022-09-09T04:33:44.043Z,100237.41
2022-09-09T04:36:11.963Z,100243.72
2022-09-09T04:38:39.588Z,100246.91
2022-09-09T04:41:08.106Z,100242.06
2022-09-09T04:43:38.212Z,100248.34
2022-09-09T04:46:06.789Z,100246.75
2022-09-09T04:48:34.550Z,100253.16
2022-09-09T04:51:05.162Z,100260.25
2022-09-09T04:53:34.983Z,100252.06
2022-09-09T04:56:06.980Z,100261.34
2022-09-09T04:58:35.203Z,100262.53
2022-09-09T05:01:09.010Z,100265.81
2022-09-09T05:03:36.856Z,100264.16
2022-09-09T05:06:06.495Z,100262.63
2022-09-09T05:08:34.103Z,100259.63
2022-09-09T05:11:01.741Z,100260.34
2022-09-09T05:13:29.441Z,100263.94
2022-09-09T05:15:57.156Z,100269.16
2022-09-09T05:18:26.103Z,100266.41
2022-09-09T05:20:53.637Z,100260.44
2022-09-09T05:23:21.434Z,100266.75
2022-09-09T05:25:57.730Z,100262.69
2022-09-09T05:28:26.611Z,100268.13
2022-09-09T05:30:59.244Z,100270.66
2022-09-09T05:33:29.010Z,100273.69
2022-09-09T05:35:58.599Z,100274.28
2022-09-09T05:38:28.744Z,100272.13
2022-09-09T05:40:56.941Z,100273.31
2022-09-09T05:43:25.171Z,100272.38
2022-09-09T05:46:02.975Z,100277.59
2022-09-09T05:48:33.288Z,100277.28
2022-09-09T05:51:01.043Z,100270.97
2022-09-09T05:53:29.208Z,100278.44
2022-09-09T05:56:02.655Z,100276.25
2022-09-09T05:58:30.839Z,100285.06
2022-09-09T06:01:06.738Z,100290.88
2022-09-09T06:03:36.857Z,100289.75
2022-09-09T06:06:07.069Z,100296.63
2022-09-09T06:08:35.706Z,100290.97
2022-09-09T06:11:05.120Z,100288.69
2022-09-09T06:13:33.489Z,100289.84
2022-09-09T06:16:01.506Z,100287.72
2022-09-09T06:18:30.436Z,100291.69
2022-09-09T06:21:01.584Z,100292.13
2022-09-09T06:23:29.970Z,100296.31
2022-09-09T06:26:09.067Z,100299.75
2022-09-09T06:28:38.192Z,100291.56
2022-09-09T06:31:07.830Z,100292.88
2022-09-09T06:33:40.192Z,100297.72
2022-09-09T06:36:12.872Z,100299.00
2022-09-09T06:38:40.767Z,100299.97
2022-09-09T06:41:08.804Z,100304.13
2022-09-09T06:43:37.223Z,100292.13
2022-09-09T06:46:06.803Z,100287.47
2022-09-09T06:48:34.514Z,100284.47
2022-09-09T06:51:03.661Z,100283.84
2022-09-09T06:53:34.587Z,100280.59
2022-09-09T06:56:03.185Z,100286.41
2022-09-09T06:58:31.052Z,100295.75
2022-09-09T07:01:04.933Z,100293.03
2022-09-09T07:03:33.154Z,100294.78
2022-09-09T07:06:00.784Z,100294.19
2022-09-09T07:08:32.172Z,100288.88
2022-09-09T07:11:09.037Z,100292.84
2022-09-09T07:13:39.432Z,100289.34
2022-09-09T07:16:08.226Z,100288.47
2022-09-09T07:18:36.362Z,100288.72
2022-09-09T07:21:05.357Z,100285.09
2022-09-09T07:23:36.603Z,100291.53
2022-09-09T07:26:04.953Z,100301.50
2022-09-09T07:28:32.639Z,100302.47
2022-09-09T07:31:03.171Z,100302.00
2022-09-09T07:33:31.442Z,100300.72
2022-09-09T07:36:05.799Z,100305.13
2022-09-09T07:38:35.390Z,100301.59
2022-09-09T07:41:09.486Z,100302.72
2022-09-09T07:43:37.129Z,100297.81
2022-09-09T07:46:04.789Z,100296.22
2022-09-09T07:48:32.480Z,100300.56
2022-09-09T07:51:09.143Z,100293.56
2022-09-09T07:53:39.290Z,100294.97
2022-09-09T07:56:10.099Z,100305.03
2022-09-09T07:58:38.634Z,100310.28
2022-09-09T08:01:11.263Z,100307.38
2022-09-09T08:03:39.376Z,100307.53
2022-09-09T08:06:09.547Z,100302.63
2022-09-09T08:08:39.901Z,100307.03
2022-09-09T08:11:10.834Z,100315.13
2022-09-09T08:13:39.364Z,100312.84
2022-09-09T08:16:09.121Z,100316.63
2022-09-09T08:18:37.420Z,100311.19
2022-09-09T08:21:12.541Z,100307.59
2022-09-09T08:23:42.938Z,100308.56
2022-09-09T08:26:14.336Z,100303.38
2022-09-09T08:28:42.804Z,100308.69
2022-09-09T08:31:13.440Z,100300.69
2022-09-09T08:33:42.147Z,100306.69
2022-09-09T08:36:13.259Z,100312.69
2022-09-09T08:38:42.199Z,100311.56
2022-09-09T08:41:32.056Z,100311.47
2022-09-09T08:44:06.658Z,100324.03
2022-09-09T08:46:43.672Z,100314.59
2022-09-09T08:49:24.489Z,100323.38
2022-09-09T08:51:52.845Z,100324.94
2022-09-09T08:54:41.556Z,100335.31
2022-09-09T08:57:16.216Z,100339.72
2022-09-09T08:59:43.831Z,100343.31
2022-09-09T09:02:19.002Z,100342.22
2022-09-09T09:05:14.077Z,100338.91
2022-09-09T09:07:57.059Z,100337.09
2022-09-09T09:10:42.706Z,100339.66
2022-09-09T09:13:17.631Z,100341.63
2022-09-09T09:15:50.237Z,100335.59
2022-09-09T09:18:19.303Z,100335.09
2022-09-09T09:20:55.922Z,100340.09
2022-09-09T09:23:27.201Z,100337.41
2022-09-09T09:26:01.434Z,100339.03
2022-09-09T09:28:31.742Z,100337.16
2022-09-09T09:31:03.965Z,100345.38
2022-09-09T09:33:37.238Z,100345.88
2022-09-09T09:36:09.024Z,100336.59
2022-09-09T09:41:39.930Z,100336.72
2022-09-09T09:44:21.718Z,100346.38
2022-09-09T09:46:49.388Z,100338.63
2022-09-09T09:49:18.262Z,100332.66
2022-09-09T09:51:46.732Z,100326.66
2022-09-09T09:54:24.978Z,100331.09
2022-09-09T09:56:53.980Z,100320.94
2022-09-09T09:59:38.842Z,100323.75
2022-09-09T10:02:15.851Z,100324.06
2022-09-09T10:04:43.583Z,100321.91
2022-09-09T10:07:18.902Z,100317.25
2022-09-09T10:09:47.156Z,100325.78
2022-09-09T10:12:27.200Z,100311.75
2022-09-09T10:15:04.487Z,100314.25
2022-09-09T10:17:43.007Z,100314.56
2022-09-09T10:20:25.442Z,100312.03
2022-09-09T10:26:02.901Z,100314.22
2022-09-09T10:28:53.919Z,100304.88
2022-09-09T10:31:31.182Z,100310.94
2022-09-09T10:34:08.039Z,100306.56
2022-09-09T10:36:40.834Z,100316.41
2022-09-09T10:39:28.557Z,100313.91
2022-09-09T10:42:03.148Z,100314.66
2022-09-09T10:44:49.398Z,100313.81
2022-09-09T10:47:38.837Z,100314.06
2022-09-09T10:50:21.097Z,100307.19
2022-09-09T10:52:58.493Z,100316.25
2022-09-09T10:55:32.201Z,100329.97
2022-09-09T10:58:02.308Z,100329.94
2022-09-09T11:00:39.771Z,100331.59
2022-09-09T11:03:09.643Z,100322.25
2022-09-09T11:05:43.983Z,100320.63
2022-09-09T11:08:16.485Z,100321.72
2022-09-09T11:10:49.700Z,100320.88
2022-09-09T11:13:21.691Z,100318.94
2022-09-09T11:15:54.199Z,100324.38
2022-09-09T11:18:24.063Z,100318.53
2022-09-09T11:21:01.406Z,100305.91
2022-09-09T11:23:42.078Z,100300.69
2022-09-09T11:26:16.404Z,100310.00
2022-09-09T11:29:02.825Z,100321.00
2022-09-09T11:31:47.720Z,100327.47
2022-09-09T11:34:28.246Z,100340.59
2022-09-09T11:37:35.279Z,100341.13
2022-09-09T11:40:16.242Z,100352.00
2022-09-09T11:42:44.860Z,100346.25
2022-09-09T11:45:22.040Z,100351.13
2022-09-09T11:47:58.969Z,100350.00
2022-09-09T11:50:33.356Z,100351.69
2022-09-09T11:53:23.543Z,100357.06
2022-09-09T11:56:10.495Z,100360.69
2022-09-09T11:58:44.086Z,100350.72
2022-09-09T12:01:16.319Z,100355.78
2022-09-09T12:03:47.914Z,100349.31
2022-09-09T12:06:21.875Z,100342.78
2022-09-09T12:08:55.878Z,100335.97
2022-09-09T12:11:28.874Z,100330.19
2022-09-09T12:13:57.588Z,100334.56
2022-09-09T12:16:35.190Z,100325.81
2022-09-09T12:19:16.438Z,100337.63
2022-09-09T12:21:53.644Z,100340.38
2022-09-09T12:24:29.640Z,100333.00
2022-09-09T12:27:06.914Z,100344.09
2022-09-09T12:29:44.740Z,100348.03
2022-09-09T12:32:17.552Z,100348.72
2022-09-09T12:34:52.240Z,100334.88
2022-09-09T12:37:32.785Z,100333.34
2022-09-09T12:40:05.880Z,100337.78
2022-09-09T12:42:39.135Z,100338.97
2022-09-09T12:45:18.735Z,100320.66
2022-09-09T12:47:51.092Z,100317.41
2022-09-09T12:50:23.463Z,100316.84
2022-09-09T12:52:54.369Z,100314.22
2022-09-09T12:55:26.138Z,100314.22
2022-09-09T12:57:54.138Z,100305.97
2022-09-09T13:00:24.335Z,100322.16
2022-09-09T13:02:54.726Z,100319.41
2022-09-09T13:05:26.509Z,100304.31
2022-09-09T13:08:02.994Z,100310.91
2022-09-09T13:10:36.551Z,100314.41
2022-09-09T13:13:16.335Z,100313.06
2022-09-09T13:15:52.476Z,100307.53
2022-09-09T13:18:25.486Z,100311.94
2022-09-09T13:20:55.039Z,100302.88
2022-09-09T13:23:23.715Z,100302.88
2022-09-09T13:25:56.364Z,100301.16
2022-09-09T13:28:26.442Z,100303.59
2022-09-09T13:31:03.060Z,100311.72
2022-09-09T13:33:35.787Z,100300.44
2022-09-09T13:36:07.051Z,100300.44
2022-09-09T13:38:38.328Z,100293.03
2022-09-09T13:41:08.080Z,100293.03
2022-09-09T13:43:39.576Z,100290.00
2022-09-09T13:46:26.881Z,100287.53
2022-09-09T13:48:58.757Z,100281.50
2022-09-09T13:51:38.117Z,100282.09
2022-09-09T13:54:07.492Z,100280.44
2022-09-09T13:56:35.425Z,100283.47
2022-09-09T13:59:03.217Z,100283.16
2022-09-09T14:01:31.105Z,100283.72
2022-09-09T14:03:59.862Z,100280.44
2022-09-09T14:06:28.369Z,100275.25
2022-09-09T14:08:57.481Z,100289.22
2022-09-09T14:11:25.218Z,100285.16
2022-09-09T14:13:52.923Z,100286.03
2022-09-09T14:16:21.381Z,100281.66
2022-09-09T14:18:49.744Z,100287.44
2022-09-09T14:21:17.439Z,100275.16
2022-09-09T14:23:45.163Z,100276.25
2022-09-09T14:26:14.202Z,100273.78
2022-09-09T14:28:54.916Z,100271.00
2022-09-09T14:31:23.384Z,100271.78
2022-09-09T14:33:51.703Z,100271.78
2022-09-09T14:36:19.687Z,100267.09
2022-09-09T14:38:47.414Z,100262.97
2022-09-09T14:41:19.103Z,100259.16
2022-09-09T14:43:47.778Z,100266.34
2022-09-09T14:46:17.897Z,100257.56
2022-09-09T14:48:46.188Z,100263.91
2022-09-09T14:51:16.590Z,100262.56
2022-09-09T14:53:45.606Z,100254.84
2022-09-09T14:56:16.716Z,100256.78
2022-09-09T14:58:45.986Z,100259.56
2022-09-09T15:01:15.504Z,100253.22
2022-09-09T15:03:45.178Z,100261.75
2022-09-09T15:06:14.941Z,100262.03
2022-09-09T15:08:44.070Z,100258.97
2022-09-09T15:11:13.471Z,100264.47
2022-09-09T15:13:46.622Z,100265.84
2022-09-09T15:16:16.330Z,100262.28
2022-09-09T15:18:45.765Z,100255.97
2022-09-09T15:21:14.589Z,100255.97
2022-09-09T15:23:42.424Z,100258.72
2022-09-09T15:26:10.950Z,100250.19
2022-09-09T15:28:40.068Z,100246.09
2022-09-09T15:31:11.835Z,100246.34
2022-09-09T15:33:39.689Z,100248.25
2022-09-09T15:36:18.456Z,100247.16
2022-09-09T15:38:47.038Z,100241.38
2022-09-09T15:41:15.828Z,100243.88
2022-09-09T15:43:46.965Z,100247.41
2022-09-09T15:46:28.441Z,100245.47
2022-09-09T15:48:57.828Z,100252.63
2022-09-09T15:51:43.885Z,100260.06
2022-09-09T15:54:14.036Z,100256.47
2022-09-09T15:56:42.756Z,100259.22
2022-09-09T15:59:11.036Z,100260.06
2022-09-09T16:01:42.025Z,100260.88
2022-09-09T16:04:09.911Z,100266.09
2022-09-09T16:06:37.868Z,100268.59
2022-09-09T16:09:07.462Z,100264.47
2022-09-09T16:11:36.918Z,100267.47
2022-09-09T16:14:05.284Z,100263.09
2022-09-09T16:16:38.996Z,100263.09
2022-09-09T16:19:13.461Z,100267.47
2022-09-09T16:21:43.221Z,100266.97
2022-09-09T16:24:12.885Z,100256.50
2022-09-09T16:26:43.867Z,100252.66
2022-09-09T16:29:11.655Z,100256.50
2022-09-09T16:31:40.312Z,100246.06
2022-09-09T16:34:08.099Z,100238.91
2022-09-09T16:36:39.843Z,100238.38
2022-09-09T16:39:09.877Z,100246.63
2022-09-09T16:41:38.735Z,100249.38
2022-09-09T16:44:07.891Z,100242.50
2022-09-09T16:46:37.707Z,100242.50
2022-09-09T16:49:07.293Z,100246.06
2022-09-09T16:51:38.274Z,100239.47
2022-09-09T16:54:08.424Z,100240.28
2022-09-09T16:56:38.690Z,100237.81
2022-09-09T16:59:08.319Z,100242.50
2022-09-09T17:01:39.352Z,100248.00
2022-09-09T17:04:09.981Z,100240.00
2022-09-09T17:06:39.526Z,100247.44
2022-09-09T17:09:09.129Z,100244.13
2022-09-09T17:11:37.768Z,100244.97
2022-09-09T17:14:06.993Z,100250.97
2022-09-09T17:16:36.048Z,100246.03
2022-09-09T17:19:05.872Z,100244.66
2022-09-09T17:21:34.377Z,100246.88
2022-09-09T17:24:03.750Z,100253.72
2022-09-09T17:26:34.001Z,100255.91
2022-09-09T17:29:02.909Z,100258.06
2022-09-09T17:31:31.745Z,100258.59
2022-09-09T17:34:00.229Z,100261.31
2022-09-09T17:36:31.044Z,100263.22
2022-09-09T17:38:59.929Z,100271.19
2022-09-09T17:41:30.775Z,100273.66
2022-09-09T17:43:59.914Z,100283.19
2022-09-09T17:46:29.453Z,100283.47
2022-09-09T17:48:58.905Z,100291.97
2022-09-09T17:51:30.684Z,100294.75
2022-09-09T17:54:00.731Z,100291.50
2022-09-09T17:56:37.472Z,100290.38
2022-09-09T17:59:07.702Z,100284.88
2022-09-09T18:01:37.697Z,100288.75
2022-09-09T18:04:07.042Z,100289.56
2022-09-09T18:06:36.642Z,100283.53
2022-09-09T18:09:08.026Z,100287.38
2022-09-09T18:11:42.579Z,100297.00
2022-09-09T18:14:12.620Z,100295.88
2022-09-09T18:16:41.477Z,100291.50
2022-09-09T18:19:12.356Z,100297.75
2022-09-09T18:21:44.139Z,100303.22
2022-09-09T18:24:13.618Z,100303.75
2022-09-09T18:26:43.413Z,100299.88
2022-09-09T18:29:13.758Z,100312.22
2022-09-09T18:31:42.429Z,100307.81
2022-09-09T18:34:12.591Z,100313.84
2022-09-09T18:36:43.392Z,100316.28
2022-09-09T18:39:12.409Z,100319.84
2022-09-09T18:41:42.966Z,100324.47
2022-09-09T18:44:13.554Z,100327.47
2022-09-09T18:46:41.457Z,100328.81
2022-09-09T18:49:11.467Z,100335.63
2022-09-09T18:51:42.777Z,100372.38
2022-09-09T18:54:14.050Z,100375.06
2022-09-09T18:56:44.195Z,100396.88
2022-09-09T18:59:14.414Z,100404.25
2022-09-09T19:01:42.806Z,100400.66
2022-09-09T19:04:11.456Z,100401.69
2022-09-09T19:06:41.774Z,100406.63
2022-09-09T19:09:11.185Z,100413.19
2022-09-09T19:11:39.338Z,100413.19
2022-09-09T19:14:11.558Z,100404.91
2022-09-09T19:16:40.480Z,100418.16
2022-09-09T19:19:10.741Z,100420.34
2022-09-09T19:21:40.210Z,100414.19
2022-09-09T19:24:11.810Z,100417.53
2022-09-09T19:26:41.702Z,100424.16
2022-09-09T19:29:14.326Z,100422.69
2022-09-09T19:31:55.154Z,100433.72
2022-09-09T19:34:30.593Z,100427.91
2022-09-09T19:36:58.458Z,100430.63
2022-09-09T19:39:26.540Z,100421.88
2022-09-09T19:41:55.588Z,100431.66
2022-09-09T19:44:27.444Z,100417.88
2022-09-09T19:46:55.488Z,100420.31
2022-09-09T19:49:23.500Z,100423.88
2022-09-09T19:51:51.572Z,100415.59
2022-09-09T19:54:19.258Z,100419.66
2022-09-09T19:56:46.910Z,100414.09
2022-09-09T19:59:15.731Z,100410.78
2022-09-09T20:01:45.927Z,100412.44
2022-09-09T20:04:15.475Z,100397.91
2022-09-09T20:06:44.812Z,100393.50
2022-09-09T20:09:15.435Z,100399.50
2022-09-09T20:11:43.912Z,100395.88
2022-09-09T20:14:12.568Z,100389.50
2022-09-09T20:16:40.710Z,100399.88
2022-09-09T20:19:12.853Z,100399.63
2022-09-09T20:21:47.372Z,100393.06
2022-09-09T20:24:17.699Z,100390.06
2022-09-09T20:26:46.307Z,100388.75
2022-09-09T20:29:16.573Z,100391.75
2022-09-09T20:31:45.167Z,100395.56
2022-09-09T20:34:15.820Z,100392.00
2022-09-09T20:36:44.482Z,100395.47
2022-09-09T20:39:14.806Z,100397.13
2022-09-09T20:41:44.191Z,100392.41
2022-09-09T20:44:14.471Z,100397.06
2022-09-09T20:46:44.240Z,100394.25
2022-09-09T20:49:16.366Z,100395.75
2022-09-09T20:51:44.759Z,100399.00
2022-09-09T20:54:14.778Z,100399.81
2022-09-09T20:56:45.035Z,100406.22
2022-09-09T20:59:15.949Z,100406.22
2022-09-09T21:01:44.127Z,100408.38
2022-09-09T21:04:12.332Z,100413.03
2022-09-09T21:06:41.735Z,100413.59
2022-09-09T21:09:09.451Z,100421.47
2022-09-09T21:11:37.413Z,100423.63
2022-09-09T21:14:05.683Z,100418.16
2022-09-09T21:16:33.544Z,100424.97
2022-09-09T21:19:01.378Z,100416.75
2022-09-09T21:21:29.127Z,100431.75
2022-09-09T21:24:00.383Z,100432.28
2022-09-09T21:26:28.789Z,100430.94
2022-09-09T21:28:56.590Z,100436.72
2022-09-09T21:31:28.183Z,100430.19
2022-09-09T21:33:56.619Z,100436.81
2022-09-09T21:36:25.341Z,100435.13
2022-09-09T21:38:53.002Z,100449.34
2022-09-09T21:41:22.108Z,100445.19
2022-09-09T21:43:54.122Z,100452.31
2022-09-09T21:46:23.088Z,100459.13
2022-09-09T21:48:51.618Z,100459.63
2022-09-09T21:51:19.627Z,100471.22
2022-09-09T21:53:47.319Z,100465.56
2022-09-09T21:56:17.884Z,100461.66
2022-09-09T21:58:47.739Z,100463.09
2022-09-09T22:01:18.225Z,100463.69
2022-09-09T22:03:48.005Z,100462.34
2022-09-09T22:06:17.310Z,100459.63
2022-09-09T22:08:45.685Z,100467.56
2022-09-09T22:11:15.029Z,100454.72
2022-09-09T22:13:44.640Z,100450.09
2022-09-09T22:16:16.632Z,100448.75
2022-09-09T22:18:45.368Z,100447.66
2022-09-09T22:21:15.273Z,100441.13
2022-09-09T22:23:43.454Z,100445.53
2022-09-09T22:26:11.539Z,100441.72
2022-09-09T22:28:39.767Z,100444.28
2022-09-09T22:31:07.535Z,100441.19
2022-09-09T22:33:37.249Z,100437.06
2022-09-09T22:36:05.764Z,100447.69
2022-09-09T22:38:36.419Z,100454.16
2022-09-09T22:41:04.985Z,100443.53
2022-09-09T22:43:33.875Z,100443.69
2022-09-09T22:46:02.506Z,100445.69
2022-09-09T22:48:33.300Z,100444.53
2022-09-09T22:51:06.809Z,100449.16
2022-09-09T22:53:36.080Z,100446.44
2022-09-09T22:56:07.023Z,100445.03
2022-09-09T22:58:36.634Z,100445.19
2022-09-09T23:01:09.881Z,100446.84
2022-09-09T23:03:37.796Z,100444.94
2022-09-09T23:06:06.931Z,100442.22
2022-09-09T23:08:36.669Z,100442.13
2022-09-09T23:11:08.736Z,100449.28
2022-09-09T23:13:37.073Z,100438.34
2022-09-09T23:16:10.689Z,100439.19
2022-09-09T23:18:40.327Z,100446.34
2022-09-09T23:21:11.248Z,100434.28
2022-09-09T23:23:39.314Z,100438.13
2022-09-09T23:26:07.039Z,100425.28
2022-09-09T23:28:36.093Z,100431.09
2022-09-09T23:31:09.779Z,100431.66
2022-09-09T23:33:37.679Z,100433.38
2022-09-09T23:36:08.357Z,100432.06
2022-09-09T23:38:40.599Z,100428.59
2022-09-09T23:41:10.308Z,100428.25
2022-09-09T23:43:39.408Z,100423.88
2022-09-09T23:46:08.682Z,100428.84
2022-09-09T23:48:39.156Z,100417.16
2022-09-09T23:51:07.265Z,100424.09
2022-09-09T23:53:35.554Z,100425.03
2022-09-09T23:56:05.551Z,100412.44
2022-09-09T23:58:34.196Z,100419.19
